createdAt,value
2024-04-21T00:02:04.333Z,30.68
2024-04-21T00:04:32.520Z,30.73
2024-04-21T00:07:00.951Z,30.64
2024-04-21T00:09:28.915Z,30.66
2024-04-21T00:11:56.841Z,30.65
2024-04-21T00:14:24.740Z,30.60
2024-04-21T00:16:53.107Z,30.55
2024-04-21T00:19:21.317Z,30.68
2024-04-21T00:21:49.354Z,30.67
2024-04-21T00:24:17.319Z,30.64
2024-04-21T00:26:45.329Z,30.70
2024-04-21T00:29:13.332Z,30.64
2024-04-21T00:31:41.481Z,30.52
2024-04-21T00:34:10.053Z,30.59
2024-04-21T00:36:40.190Z,30.61
2024-04-21T00:39:08.327Z,30.64
2024-04-21T00:41:36.466Z,30.47
2024-04-21T00:44:04.455Z,30.55
2024-04-21T00:46:32.373Z,30.61
2024-04-21T00:49:00.428Z,30.50
2024-04-21T00:51:28.335Z,30.52
2024-04-21T00:53:56.298Z,30.58
2024-04-21T00:56:24.296Z,30.47
2024-04-21T00:58:53.548Z,30.51
2024-04-21T01:01:24.561Z,30.72
2024-04-21T01:03:53.525Z,30.75
2024-04-21T01:06:21.495Z,30.54
2024-04-21T01:08:49.488Z,30.64
2024-04-21T01:11:20.870Z,30.66
2024-04-21T01:13:48.860Z,30.46
2024-04-21T01:16:17.323Z,30.55
2024-04-21T01:18:45.801Z,30.57
2024-04-21T01:21:13.943Z,30.58
2024-04-21T01:23:41.910Z,30.59
2024-04-21T01:26:09.784Z,30.62
2024-04-21T01:28:37.704Z,30.44
2024-04-21T01:31:05.930Z,30.49
2024-04-21T01:33:33.951Z,30.60
2024-04-21T01:36:01.884Z,30.56
2024-04-21T01:38:29.901Z,30.42
2024-04-21T01:40:57.960Z,30.44
2024-04-21T01:43:26.024Z,30.52
2024-04-21T01:45:54.333Z,30.47
2024-04-21T01:48:22.267Z,30.59
2024-04-21T01:50:50.210Z,30.50
2024-04-21T01:53:19.500Z,30.52
2024-04-21T01:55:47.413Z,30.40
2024-04-21T01:58:15.349Z,30.59
2024-04-21T02:00:43.599Z,30.57
2024-04-21T02:03:11.691Z,30.56
2024-04-21T02:05:39.644Z,30.44
2024-04-21T02:08:08.137Z,30.39
2024-04-21T02:10:36.055Z,30.53
2024-04-21T02:13:04.235Z,30.45
2024-04-21T02:15:32.095Z,30.58
2024-04-21T02:18:00.040Z,30.41
2024-04-21T02:20:28.075Z,30.40
2024-04-21T02:22:55.963Z,30.44
2024-04-21T02:25:24.075Z,30.43
2024-04-21T02:27:52.194Z,30.39
2024-04-21T02:30:21.890Z,30.46
2024-04-21T02:32:51.217Z,30.41
2024-04-21T02:35:19.177Z,30.52
2024-04-21T02:37:47.147Z,30.40
2024-04-21T02:40:15.309Z,30.35
2024-04-21T02:42:43.340Z,30.37
2024-04-21T02:45:11.796Z,30.46
2024-04-21T02:47:39.748Z,30.24
2024-04-21T02:50:07.874Z,30.35
2024-04-21T02:52:35.842Z,30.42
2024-04-21T02:55:03.985Z,30.40
2024-04-21T02:57:33.052Z,30.37
2024-04-21T03:00:00.928Z,30.40
2024-04-21T03:02:29.268Z,30.44
2024-04-21T03:04:57.264Z,30.43
2024-04-21T03:07:25.199Z,30.15
2024-04-21T03:09:53.190Z,30.36
2024-04-21T03:12:21.265Z,30.49
2024-04-21T03:14:49.201Z,30.41
2024-04-21T03:17:18.508Z,30.31
2024-04-21T03:19:48.757Z,30.33
2024-04-21T03:22:17.149Z,30.38
2024-04-21T03:24:45.166Z,30.21
2024-04-21T03:27:13.070Z,30.28
2024-04-21T03:29:41.193Z,30.29
2024-04-21T03:32:09.240Z,30.35
2024-04-21T03:34:37.271Z,30.26
2024-04-21T03:37:05.341Z,30.20
2024-04-21T03:39:33.576Z,30.17
2024-04-21T03:42:01.581Z,30.18
2024-04-21T03:44:29.574Z,30.06
2024-04-21T03:46:57.813Z,30.22
2024-04-21T03:49:25.827Z,30.11
2024-04-21T03:51:53.986Z,29.97
2024-04-21T03:54:22.054Z,30.06
2024-04-21T03:56:49.915Z,30.01
2024-04-21T03:59:18.094Z,29.90
2024-04-21T04:01:46.554Z,29.85
2024-04-21T04:04:14.769Z,29.63
2024-04-21T04:06:42.714Z,29.49
2024-04-21T04:09:10.863Z,29.40
2024-04-21T04:11:38.921Z,29.28
2024-04-21T04:14:06.913Z,29.15
2024-04-21T04:16:34.872Z,29.05
2024-04-21T04:19:03.033Z,28.85
2024-04-21T04:21:32.360Z,28.76
2024-04-21T04:24:00.235Z,28.65
2024-04-21T04:26:28.379Z,28.50
2024-04-21T04:28:56.248Z,28.57
2024-04-21T04:31:24.337Z,28.54
2024-04-21T04:33:52.924Z,28.30
2024-04-21T04:36:21.268Z,28.36
2024-04-21T04:38:49.243Z,28.40
2024-04-21T04:41:17.224Z,28.36
2024-04-21T04:43:45.309Z,28.28
2024-04-21T04:46:13.282Z,28.35
2024-04-21T04:48:41.278Z,28.46
2024-04-21T04:51:09.273Z,28.25
2024-04-21T04:53:37.308Z,28.33
2024-04-21T04:56:05.557Z,28.33
2024-04-21T04:58:33.591Z,28.24
2024-04-21T05:01:01.552Z,28.27
2024-04-21T05:03:29.573Z,28.29
2024-04-21T05:05:57.610Z,28.21
2024-04-21T05:08:26.441Z,28.24
2024-04-21T05:10:54.320Z,28.06
2024-04-21T05:13:22.273Z,28.12
2024-04-21T05:15:50.404Z,27.93
2024-04-21T05:18:18.574Z,28.08
2024-04-21T05:20:46.705Z,28.02
2024-04-21T05:23:14.854Z,27.97
2024-04-21T05:25:42.867Z,27.83
2024-04-21T05:28:10.919Z,27.81
2024-04-21T05:30:38.991Z,27.96
2024-04-21T05:33:06.999Z,28.08
2024-04-21T05:35:34.911Z,28.01
2024-04-21T05:38:02.969Z,28.03
2024-04-21T05:40:31.038Z,27.93
2024-04-21T05:42:59.001Z,27.89
2024-04-21T05:45:27.069Z,28.01
2024-04-21T05:47:56.087Z,27.88
2024-04-21T05:50:24.140Z,27.76
2024-04-21T05:52:52.197Z,27.73
2024-04-21T05:55:20.165Z,27.66
2024-04-21T05:57:48.912Z,27.81
2024-04-21T06:00:17.123Z,27.83
2024-04-21T06:02:45.115Z,27.86
2024-04-21T06:05:13.360Z,27.96
2024-04-21T06:07:41.422Z,27.97
2024-04-21T06:10:09.515Z,28.10
2024-04-21T06:12:38.111Z,28.08
2024-04-21T06:15:06.383Z,28.22
2024-04-21T06:17:34.362Z,28.10
2024-04-21T06:20:04.772Z,27.98
2024-04-21T06:22:32.758Z,28.19
2024-04-21T06:25:00.719Z,28.07
2024-04-21T06:27:30.684Z,28.26
2024-04-21T06:29:58.750Z,28.15
2024-04-21T06:32:26.922Z,28.00
2024-04-21T06:34:54.863Z,28.23
2024-04-21T06:37:22.946Z,27.98
2024-04-21T06:39:50.964Z,28.06
2024-04-21T06:42:18.990Z,28.00
2024-04-21T06:44:47.139Z,28.07
2024-04-21T06:47:15.215Z,27.85
2024-04-21T06:49:43.310Z,28.01
2024-04-21T06:52:11.419Z,27.90
2024-04-21T06:54:40.497Z,27.99
2024-04-21T06:57:08.523Z,27.73
2024-04-21T06:59:36.511Z,27.92
2024-04-21T07:02:04.654Z,27.75
2024-04-21T07:04:33.560Z,27.94
2024-04-21T07:07:01.671Z,27.98
2024-04-21T07:09:29.642Z,27.93
2024-04-21T07:11:57.649Z,28.09
2024-04-21T07:14:25.559Z,27.97
2024-04-21T07:16:53.635Z,27.99
2024-04-21T07:19:22.333Z,28.06
2024-04-21T07:21:50.272Z,27.91
2024-04-21T07:24:18.173Z,28.11
2024-04-21T07:26:46.102Z,28.09
2024-04-21T07:29:14.084Z,27.90
2024-04-21T07:31:42.034Z,28.02
2024-04-21T07:34:10.482Z,28.02
2024-04-21T07:36:38.599Z,28.16
2024-04-21T07:39:06.615Z,28.14
2024-04-21T07:41:35.588Z,27.96
2024-04-21T07:44:03.585Z,28.17
2024-04-21T07:46:31.745Z,28.07
2024-04-21T07:49:00.072Z,28.05
2024-04-21T07:51:28.087Z,28.11
2024-04-21T07:53:56.063Z,28.26
2024-04-21T07:56:23.969Z,28.20
2024-04-21T07:58:51.994Z,28.29
2024-04-21T08:01:19.973Z,28.23
2024-04-21T08:03:48.021Z,28.08
2024-04-21T08:06:16.169Z,28.04
2024-04-21T08:08:46.900Z,28.21
2024-04-21T08:11:16.099Z,28.22
2024-04-21T08:13:44.237Z,28.33
2024-04-21T08:16:12.442Z,28.30
2024-04-21T08:18:40.675Z,28.30
2024-04-21T08:21:08.707Z,28.41
2024-04-21T08:23:36.805Z,28.38
2024-04-21T08:26:04.970Z,28.56
2024-04-21T08:28:32.972Z,28.40
2024-04-21T08:31:01.051Z,28.27
2024-04-21T08:33:29.132Z,28.43
2024-04-21T08:35:58.552Z,28.36
2024-04-21T08:38:28.580Z,28.21
2024-04-21T08:40:56.622Z,28.25
2024-04-21T08:43:25.225Z,28.24
2024-04-21T08:45:54.524Z,28.38
2024-04-21T08:48:22.918Z,28.14
2024-04-21T08:50:51.229Z,28.35
2024-04-21T08:53:19.324Z,28.31
2024-04-21T08:55:48.713Z,28.20
2024-04-21T08:58:17.561Z,28.14
2024-04-21T09:00:49.137Z,28.05
2024-04-21T09:03:17.253Z,28.07
2024-04-21T09:05:50.903Z,28.09
2024-04-21T09:08:18.893Z,28.32
2024-04-21T09:10:46.999Z,28.22
2024-04-21T09:13:15.545Z,28.18
2024-04-21T09:15:43.461Z,28.18
2024-04-21T09:18:11.455Z,28.30
2024-04-21T09:20:39.445Z,28.12
2024-04-21T09:23:10.408Z,28.09
2024-04-21T09:25:38.408Z,28.06
2024-04-21T09:28:06.804Z,28.01
2024-04-21T09:30:34.829Z,28.06
2024-04-21T09:33:04.788Z,28.23
2024-04-21T09:35:32.878Z,28.20
2024-04-21T09:38:00.781Z,28.19
2024-04-21T09:40:28.934Z,28.14
2024-04-21T09:42:57.448Z,27.91
2024-04-21T09:45:25.793Z,28.14
2024-04-21T09:47:53.947Z,28.14
2024-04-21T09:50:22.512Z,28.18
2024-04-21T09:52:51.714Z,28.20
2024-04-21T09:55:20.062Z,28.15
2024-04-21T09:57:51.238Z,28.25
2024-04-21T10:00:22.239Z,28.04
2024-04-21T10:02:50.477Z,28.03
2024-04-21T10:05:19.438Z,28.18
2024-04-21T10:07:47.994Z,28.18
2024-04-21T10:10:21.456Z,28.25
2024-04-21T10:12:49.488Z,28.19
2024-04-21T10:15:21.174Z,28.04
2024-04-21T10:17:56.201Z,28.06
2024-04-21T10:20:34.900Z,27.95
2024-04-21T10:23:11.065Z,28.18
2024-04-21T10:25:40.781Z,28.14
2024-04-21T10:28:10.191Z,28.35
2024-04-21T10:30:38.402Z,28.24
2024-04-21T10:33:11.500Z,28.02
2024-04-21T10:35:43.051Z,28.30
2024-04-21T10:38:13.111Z,28.24
2024-04-21T10:40:42.004Z,28.31
2024-04-21T10:43:09.968Z,28.26
2024-04-21T10:45:39.751Z,28.25
2024-04-21T10:48:08.538Z,28.18
2024-04-21T10:50:37.794Z,28.31
2024-04-21T10:53:06.776Z,28.22
2024-04-21T10:55:35.553Z,28.31
2024-04-21T10:58:05.047Z,28.24
2024-04-21T11:00:37.875Z,28.26
2024-04-21T11:03:06.751Z,28.21
2024-04-21T11:06:02.194Z,28.34
2024-04-21T11:08:30.167Z,28.12
2024-04-21T11:10:58.243Z,28.24
2024-04-21T11:13:26.403Z,28.26
2024-04-21T11:15:54.636Z,28.00
2024-04-21T11:18:22.740Z,28.00
2024-04-21T11:20:51.060Z,27.88
2024-04-21T11:23:18.956Z,27.89
2024-04-21T11:25:52.858Z,27.91
2024-04-21T11:28:23.534Z,28.06
2024-04-21T11:31:04.987Z,27.90
2024-04-21T11:33:34.097Z,27.93
2024-04-21T11:36:03.318Z,27.99
2024-04-21T11:38:31.498Z,28.01
2024-04-21T11:40:59.416Z,28.08
2024-04-21T11:43:30.776Z,27.90
2024-04-21T11:46:05.038Z,27.89
2024-04-21T11:48:33.450Z,27.88
2024-04-21T11:51:01.796Z,27.74
2024-04-21T11:53:29.850Z,27.94
2024-04-21T11:55:58.431Z,27.60
2024-04-21T11:58:27.595Z,27.61
2024-04-21T12:00:55.837Z,27.68
2024-04-21T12:03:23.845Z,27.72
2024-04-21T12:05:51.867Z,27.73
2024-04-21T12:08:20.018Z,27.53
2024-04-21T12:10:48.002Z,27.61
2024-04-21T12:13:16.211Z,27.63
2024-04-21T12:15:44.690Z,27.59
2024-04-21T12:18:12.758Z,27.60
2024-04-21T12:20:40.599Z,27.58
2024-04-21T12:23:09.648Z,27.46
2024-04-21T12:25:38.671Z,27.66
2024-04-21T12:28:07.294Z,27.57
2024-04-21T12:30:39.264Z,27.57
2024-04-21T12:33:08.738Z,27.53
2024-04-21T12:35:36.965Z,27.70
2024-04-21T12:38:04.930Z,27.50
2024-04-21T12:40:32.949Z,27.56
2024-04-21T12:43:00.959Z,27.81
2024-04-21T12:45:29.077Z,27.74
2024-04-21T12:47:56.969Z,27.67
2024-04-21T12:50:25.108Z,27.81
2024-04-21T12:52:53.129Z,27.73
2024-04-21T12:55:21.203Z,27.77
2024-04-21T12:57:49.274Z,27.87
2024-04-21T13:00:17.327Z,27.78
2024-04-21T13:02:45.428Z,28.02
2024-04-21T13:05:15.250Z,28.00
2024-04-21T13:07:43.202Z,28.15
2024-04-21T13:10:11.309Z,28.24
2024-04-21T13:12:39.313Z,28.12
2024-04-21T13:15:07.612Z,28.09
2024-04-21T13:17:35.588Z,28.18
2024-04-21T13:20:03.947Z,28.30
2024-04-21T13:22:32.076Z,28.21
2024-04-21T13:25:00.848Z,28.22
2024-04-21T13:27:29.867Z,28.33
2024-04-21T13:29:57.834Z,28.25
2024-04-21T13:32:25.949Z,28.32
2024-04-21T13:34:57.094Z,28.37
2024-04-21T13:37:26.327Z,28.47
2024-04-21T13:39:54.296Z,28.47
2024-04-21T13:42:22.332Z,28.48
2024-04-21T13:44:50.374Z,28.40
2024-04-21T13:47:18.433Z,28.46
2024-04-21T13:49:46.477Z,28.67
2024-04-21T13:52:14.529Z,28.46
2024-04-21T13:54:44.027Z,28.50
2024-04-21T13:57:11.935Z,28.51
2024-04-21T13:59:43.046Z,28.57
2024-04-21T14:02:12.602Z,28.62
2024-04-21T14:04:40.670Z,28.65
2024-04-21T14:07:08.762Z,28.68
2024-04-21T14:09:37.531Z,28.75
2024-04-21T14:12:05.701Z,28.74
2024-04-21T14:14:33.593Z,28.58
2024-04-21T14:17:01.555Z,28.58
2024-04-21T14:19:29.576Z,28.74
2024-04-21T14:21:57.708Z,28.70
2024-04-21T14:24:25.668Z,28.67
2024-04-21T14:26:53.622Z,28.85
2024-04-21T14:29:21.610Z,28.87
2024-04-21T14:31:49.576Z,29.01
2024-04-21T14:34:17.707Z,28.95
2024-04-21T14:36:46.005Z,29.00
2024-04-21T14:39:14.019Z,28.98
2024-04-21T14:41:43.239Z,28.88
2024-04-21T14:44:11.321Z,29.03
2024-04-21T14:46:41.554Z,28.99
2024-04-21T14:49:09.582Z,28.97
2024-04-21T14:51:38.638Z,28.95
2024-04-21T14:54:06.539Z,29.01
2024-04-21T14:56:34.625Z,29.02
2024-04-21T14:59:03.128Z,29.07
2024-04-21T15:01:31.118Z,29.12
2024-04-21T15:03:59.647Z,29.02
2024-04-21T15:06:27.617Z,28.93
2024-04-21T15:09:01.213Z,28.99
2024-04-21T15:11:30.057Z,29.10
2024-04-21T15:13:58.960Z,29.04
2024-04-21T15:16:28.696Z,29.10
2024-04-21T15:18:56.706Z,29.12
2024-04-21T15:21:24.670Z,29.11
2024-04-21T15:23:52.674Z,29.16
2024-04-21T15:26:20.668Z,29.10
2024-04-21T15:28:49.337Z,29.13
2024-04-21T15:31:17.723Z,29.14
2024-04-21T15:33:45.916Z,29.14
2024-04-21T15:36:14.480Z,29.11
2024-04-21T15:38:42.340Z,29.20
2024-04-21T15:41:10.320Z,29.20
2024-04-21T15:43:38.444Z,29.10
2024-04-21T15:46:06.435Z,29.23
2024-04-21T15:48:34.655Z,29.21
2024-04-21T15:51:06.651Z,29.28
2024-04-21T15:53:34.820Z,29.27
2024-04-21T15:56:03.799Z,29.33
2024-04-21T15:58:32.123Z,29.38
2024-04-21T16:01:00.255Z,29.37
2024-04-21T16:03:28.262Z,29.41
2024-04-21T16:05:56.313Z,29.47
2024-04-21T16:08:24.781Z,29.43
2024-04-21T16:10:52.803Z,29.44
2024-04-21T16:13:21.890Z,29.54
2024-04-21T16:15:49.792Z,29.56
2024-04-21T16:18:17.840Z,29.46
2024-04-21T16:20:45.870Z,29.57
2024-04-21T16:23:13.924Z,29.43
2024-04-21T16:25:41.837Z,29.68
2024-04-21T16:28:10.156Z,29.66
2024-04-21T16:30:38.192Z,29.57
2024-04-21T16:33:06.457Z,29.67
2024-04-21T16:35:34.972Z,29.70
2024-04-21T16:38:03.177Z,29.71
2024-04-21T16:40:32.070Z,29.69
2024-04-21T16:43:00.399Z,29.88
2024-04-21T16:45:28.696Z,29.85
2024-04-21T16:47:56.772Z,29.86
2024-04-21T16:50:25.122Z,29.85
2024-04-21T16:52:53.356Z,29.94
2024-04-21T16:55:21.699Z,29.99
2024-04-21T16:57:58.535Z,29.93
2024-04-21T17:00:26.826Z,29.86
2024-04-21T17:02:55.076Z,30.11
2024-04-21T17:05:23.334Z,30.05
2024-04-21T17:08:42.213Z,29.95
2024-04-21T17:11:10.491Z,30.00
2024-04-21T17:13:41.665Z,30.10
2024-04-21T17:16:12.973Z,30.12
2024-04-21T17:18:43.091Z,30.14
2024-04-21T17:21:11.303Z,30.20
2024-04-21T17:23:39.252Z,30.26
2024-04-21T17:26:07.109Z,30.01
2024-04-21T17:28:35.186Z,30.19
2024-04-21T17:31:03.504Z,30.02
2024-04-21T17:33:32.231Z,30.16
2024-04-21T17:36:00.477Z,30.20
2024-04-21T17:38:28.489Z,30.16
2024-04-21T17:40:57.395Z,30.09
2024-04-21T17:43:25.358Z,30.16
2024-04-21T17:45:53.275Z,30.28
2024-04-21T17:48:21.159Z,30.16
2024-04-21T17:50:49.306Z,30.06
2024-04-21T17:53:17.232Z,30.22
2024-04-21T17:55:45.147Z,30.38
2024-04-21T17:58:13.420Z,30.27
2024-04-21T18:00:41.529Z,30.21
2024-04-21T18:03:09.641Z,30.32
2024-04-21T18:05:38.780Z,30.30
2024-04-21T18:08:06.739Z,30.29
2024-04-21T18:10:34.890Z,30.23
2024-04-21T18:13:03.832Z,30.25
2024-04-21T18:15:31.979Z,30.31
2024-04-21T18:18:00.246Z,30.31
2024-04-21T18:20:28.281Z,30.18
2024-04-21T18:22:56.150Z,30.37
2024-04-21T18:25:24.090Z,30.40
2024-04-21T18:27:52.058Z,30.32
2024-04-21T18:30:20.079Z,30.37
2024-04-21T18:32:48.212Z,30.33
2024-04-21T18:35:16.310Z,30.24
2024-04-21T18:37:44.307Z,30.42
2024-04-21T18:40:12.415Z,30.33
2024-04-21T18:42:40.541Z,30.24
2024-04-21T18:45:10.738Z,30.10
2024-04-21T18:47:38.721Z,30.29
2024-04-21T18:50:07.492Z,30.39
2024-04-21T18:52:37.573Z,30.49
2024-04-21T18:55:05.815Z,30.31
2024-04-21T18:57:33.898Z,30.29
2024-04-21T19:00:01.904Z,30.47
2024-04-21T19:02:29.986Z,30.36
2024-04-21T19:04:57.898Z,30.40
2024-04-21T19:07:25.795Z,30.44
2024-04-21T19:09:54.139Z,30.42
2024-04-21T19:12:22.385Z,30.43
2024-04-21T19:14:50.928Z,30.28
2024-04-21T19:17:19.273Z,30.31
2024-04-21T19:19:47.574Z,30.31
2024-04-21T19:22:15.827Z,30.40
2024-04-21T19:24:43.711Z,30.47
2024-04-21T19:27:11.653Z,30.48
2024-04-21T19:29:39.729Z,30.43
2024-04-21T19:32:07.921Z,30.30
2024-04-21T19:34:36.014Z,30.37
2024-04-21T19:37:04.284Z,30.47
2024-04-21T19:39:32.227Z,30.46
2024-04-21T19:42:00.183Z,30.25
2024-04-21T19:44:28.134Z,30.27
2024-04-21T19:46:56.135Z,30.34
2024-04-21T19:49:24.116Z,30.34
2024-04-21T19:51:52.170Z,30.29
2024-04-21T19:54:26.886Z,30.32
2024-04-21T19:56:59.064Z,30.41
2024-04-21T19:59:27.124Z,30.39
2024-04-21T20:01:55.413Z,30.24
2024-04-21T20:04:23.999Z,30.39
2024-04-21T20:06:52.067Z,30.33
2024-04-21T20:09:20.128Z,30.38
2024-04-21T20:11:48.063Z,30.32
2024-04-21T20:14:16.056Z,30.32
2024-04-21T20:17:02.454Z,30.33
2024-04-21T20:19:30.502Z,30.35
2024-04-21T20:21:58.466Z,30.42
2024-04-21T20:24:26.425Z,30.39
2024-04-21T20:26:54.453Z,30.43
2024-04-21T20:29:22.410Z,30.33
2024-04-21T20:31:51.574Z,30.41
2024-04-21T20:34:19.653Z,30.40
2024-04-21T20:36:47.636Z,30.47
2024-04-21T20:39:15.620Z,30.41
2024-04-21T20:41:43.498Z,30.44
2024-04-21T20:44:11.526Z,30.41
2024-04-21T20:46:39.515Z,30.42
2024-04-21T20:49:07.748Z,30.41
2024-04-21T20:51:35.794Z,30.46
2024-04-21T20:54:03.971Z,30.35
2024-04-21T20:56:31.988Z,30.35
2024-04-21T20:58:59.952Z,30.53
2024-04-21T21:01:28.152Z,30.32
2024-04-21T21:03:56.197Z,30.38
2024-04-21T21:06:24.241Z,30.50
2024-04-21T21:08:52.097Z,30.38
2024-04-21T21:11:20.120Z,30.41
2024-04-21T21:13:48.096Z,30.41
2024-04-21T21:16:16.135Z,30.48
2024-04-21T21:18:44.512Z,30.43
2024-04-21T21:21:12.497Z,30.25
2024-04-21T21:23:40.452Z,30.52
2024-04-21T21:26:08.501Z,30.50
2024-04-21T21:28:36.464Z,30.51
2024-04-21T21:31:06.509Z,30.48
2024-04-21T21:33:34.482Z,30.41
2024-04-21T21:36:02.587Z,30.36
2024-04-21T21:38:32.293Z,30.44
2024-04-21T21:41:00.247Z,30.41
2024-04-21T21:43:28.172Z,30.40
2024-04-21T21:45:56.314Z,30.48
2024-04-21T21:48:24.427Z,30.47
2024-04-21T21:50:52.433Z,30.29
2024-04-21T21:53:20.460Z,30.50
2024-04-21T21:55:48.406Z,30.47
2024-04-21T21:58:16.560Z,30.42
2024-04-21T22:00:44.663Z,30.62
2024-04-21T22:03:12.598Z,30.43
2024-04-21T22:05:40.571Z,30.35
2024-04-21T22:08:08.655Z,30.42
2024-04-21T22:10:36.529Z,30.59
2024-04-21T22:13:04.855Z,30.55
2024-04-21T22:15:32.904Z,30.53
2024-04-21T22:18:00.972Z,30.41
2024-04-21T22:20:28.965Z,30.42
2024-04-21T22:22:56.974Z,30.28
2024-04-21T22:25:25.013Z,30.32
2024-04-21T22:27:53.066Z,30.40
2024-04-21T22:30:21.121Z,30.40
2024-04-21T22:32:49.539Z,30.37
2024-04-21T22:35:17.736Z,30.34
2024-04-21T22:37:46.301Z,30.12
2024-04-21T22:40:14.358Z,30.34
2024-04-21T22:42:43.647Z,30.29
2024-04-21T22:45:11.940Z,30.24
2024-04-21T22:47:40.281Z,30.43
2024-04-21T22:50:08.515Z,30.17
2024-04-21T22:52:36.886Z,30.32
2024-04-21T22:55:05.253Z,30.26
2024-04-21T22:57:33.231Z,30.29
2024-04-21T23:00:01.285Z,30.33
2024-04-21T23:02:29.468Z,30.32
2024-04-21T23:04:57.545Z,30.26
2024-04-21T23:07:25.782Z,30.23
2024-04-21T23:09:53.804Z,30.19
2024-04-21T23:12:21.891Z,30.24
2024-04-21T23:14:49.795Z,30.28
2024-04-21T23:17:17.788Z,30.28
2024-04-21T23:19:45.873Z,30.22
2024-04-21T23:22:14.015Z,30.28
2024-04-21T23:24:42.014Z,30.20
2024-04-21T23:27:10.044Z,30.26
2024-04-21T23:29:38.022Z,30.25
2024-04-21T23:32:06.292Z,30.11
2024-04-21T23:34:34.381Z,30.26
2024-04-21T23:37:02.363Z,30.07
2024-04-21T23:39:30.280Z,30.28
2024-04-21T23:41:58.375Z,30.21
2024-04-21T23:44:26.304Z,30.21
2024-04-21T23:46:54.320Z,30.10
2024-04-21T23:49:22.430Z,30.26
2024-04-21T23:51:50.455Z,30.30
2024-04-21T23:54:18.483Z,30.19
2024-04-21T23:56:46.369Z,30.24
2024-04-21T23:59:14.338Z,30.32
